sensor_id;sensor_type;location;lat;lon;timestamp;P1;durP1;ratioP1;P2;durP2;ratioP2
23304;SDS011;11821;51.456;8.844;2023-08-07T00:01:18;1.63;;;1.30;;
23304;SDS011;11821;51.456;8.844;2023-08-07T00:03:44;1.40;;;1.30;;
23304;SDS011;11821;51.456;8.844;2023-08-07T00:06:11;1.27;;;0.90;;
23304;SDS011;11821;51.456;8.844;2023-08-07T00:08:37;2.85;;;1.40;;
23304;SDS011;11821;51.456;8.844;2023-08-07T00:11:05;1.85;;;1.10;;
23304;SDS011;11821;51.456;8.844;2023-08-07T00:13:31;1.10;;;1.10;;
23304;SDS011;11821;51.456;8.844;2023-08-07T00:15:58;0.88;;;0.85;;
23304;SDS011;11821;51.456;8.844;2023-08-07T00:18:24;2.38;;;0.80;;
23304;SDS011;11821;51.456;8.844;2023-08-07T00:20:51;4.53;;;0.68;;
23304;SDS011;11821;51.456;8.844;2023-08-07T00:23:17;1.80;;;0.70;;
23304;SDS011;11821;51.456;8.844;2023-08-07T00:25:44;0.55;;;0.55;;
23304;SDS011;11821;51.456;8.844;2023-08-07T00:28:11;1.27;;;0.57;;
23304;SDS011;11821;51.456;8.844;2023-08-07T00:30:37;0.82;;;0.50;;
23304;SDS011;11821;51.456;8.844;2023-08-07T00:33:04;0.90;;;0.50;;
23304;SDS011;11821;51.456;8.844;2023-08-07T00:35:30;0.60;;;0.50;;
23304;SDS011;11821;51.456;8.844;2023-08-07T00:37:57;0.70;;;0.50;;
23304;SDS011;11821;51.456;8.844;2023-08-07T00:40:23;0.52;;;0.47;;
23304;SDS011;11821;51.456;8.844;2023-08-07T00:42:50;0.68;;;0.30;;
23304;SDS011;11821;51.456;8.844;2023-08-07T00:45:17;1.65;;;0.30;;
23304;SDS011;11821;51.456;8.844;2023-08-07T00:47:43;1.10;;;0.40;;
23304;SDS011;11821;51.456;8.844;2023-08-07T00:50:10;0.77;;;0.20;;
23304;SDS011;11821;51.456;8.844;2023-08-07T00:52:37;0.30;;;0.30;;
23304;SDS011;11821;51.456;8.844;2023-08-07T00:55:04;0.68;;;0.30;;
23304;SDS011;11821;51.456;8.844;2023-08-07T00:57:31;0.40;;;0.40;;
23304;SDS011;11821;51.456;8.844;2023-08-07T00:59:58;1.63;;;0.32;;
23304;SDS011;11821;51.456;8.844;2023-08-07T01:02:25;0.57;;;0.40;;
23304;SDS011;11821;51.456;8.844;2023-08-07T01:04:52;0.40;;;0.40;;
23304;SDS011;11821;51.456;8.844;2023-08-07T01:07:19;0.45;;;0.45;;
23304;SDS011;11821;51.456;8.844;2023-08-07T01:09:45;0.70;;;0.50;;
23304;SDS011;11821;51.456;8.844;2023-08-07T01:12:15;0.50;;;0.40;;
23304;SDS011;11821;51.456;8.844;2023-08-07T01:17:20;0.43;;;0.43;;
23304;SDS011;11821;51.456;8.844;2023-08-07T01:19:47;1.13;;;0.60;;
23304;SDS011;11821;51.456;8.844;2023-08-07T01:22:15;0.50;;;0.50;;
23304;SDS011;11821;51.456;8.844;2023-08-07T01:24:42;0.80;;;0.60;;
23304;SDS011;11821;51.456;8.844;2023-08-07T01:35:01;0.40;;;0.40;;
23304;SDS011;11821;51.456;8.844;2023-08-07T01:37:29;0.80;;;0.45;;
23304;SDS011;11821;51.456;8.844;2023-08-07T01:39:57;0.93;;;0.38;;
23304;SDS011;11821;51.456;8.844;2023-08-07T01:42:26;0.47;;;0.45;;
23304;SDS011;11821;51.456;8.844;2023-08-07T01:44:53;1.98;;;0.45;;
23304;SDS011;11821;51.456;8.844;2023-08-07T01:47:20;0.40;;;0.40;;
23304;SDS011;11821;51.456;8.844;2023-08-07T01:49:46;1.27;;;0.43;;
23304;SDS011;11821;51.456;8.844;2023-08-07T01:52:13;0.45;;;0.45;;
23304;SDS011;11821;51.456;8.844;2023-08-07T01:54:40;0.50;;;0.50;;
23304;SDS011;11821;51.456;8.844;2023-08-07T01:57:06;0.50;;;0.50;;
23304;SDS011;11821;51.456;8.844;2023-08-07T01:59:33;0.80;;;0.55;;
23304;SDS011;11821;51.456;8.844;2023-08-07T02:01:59;1.23;;;0.75;;
23304;SDS011;11821;51.456;8.844;2023-08-07T02:04:26;0.75;;;0.63;;
23304;SDS011;11821;51.456;8.844;2023-08-07T02:06:53;1.02;;;0.75;;
23304;SDS011;11821;51.456;8.844;2023-08-07T02:09:23;0.60;;;0.60;;
23304;SDS011;11821;51.456;8.844;2023-08-07T02:11:49;0.57;;;0.50;;
23304;SDS011;11821;51.456;8.844;2023-08-07T02:14:16;0.60;;;0.50;;
23304;SDS011;11821;51.456;8.844;2023-08-07T02:16:43;1.50;;;0.60;;
23304;SDS011;11821;51.456;8.844;2023-08-07T02:19:10;1.05;;;0.57;;
23304;SDS011;11821;51.456;8.844;2023-08-07T02:21:36;2.75;;;0.68;;
23304;SDS011;11821;51.456;8.844;2023-08-07T02:24:03;0.50;;;0.50;;
23304;SDS011;11821;51.456;8.844;2023-08-07T02:26:32;0.40;;;0.40;;
23304;SDS011;11821;51.456;8.844;2023-08-07T02:28:59;3.92;;;0.70;;
23304;SDS011;11821;51.456;8.844;2023-08-07T02:31:26;1.20;;;0.75;;
23304;SDS011;11821;51.456;8.844;2023-08-07T02:33:53;0.75;;;0.60;;
23304;SDS011;11821;51.456;8.844;2023-08-07T02:36:20;0.60;;;0.60;;
23304;SDS011;11821;51.456;8.844;2023-08-07T02:38:47;0.40;;;0.40;;
23304;SDS011;11821;51.456;8.844;2023-08-07T02:41:14;0.40;;;0.40;;
23304;SDS011;11821;51.456;8.844;2023-08-07T02:43:40;0.60;;;0.60;;
23304;SDS011;11821;51.456;8.844;2023-08-07T02:46:08;1.15;;;0.55;;
23304;SDS011;11821;51.456;8.844;2023-08-07T02:48:35;0.55;;;0.40;;
23304;SDS011;11821;51.456;8.844;2023-08-07T02:51:02;0.50;;;0.50;;
23304;SDS011;11821;51.456;8.844;2023-08-07T02:53:30;0.70;;;0.50;;
23304;SDS011;11821;51.456;8.844;2023-08-07T02:55:56;1.00;;;0.50;;
23304;SDS011;11821;51.456;8.844;2023-08-07T02:58:23;0.70;;;0.65;;
23304;SDS011;11821;51.456;8.844;2023-08-07T03:00:49;1.42;;;0.50;;
23304;SDS011;11821;51.456;8.844;2023-08-07T03:03:16;0.50;;;0.50;;
23304;SDS011;11821;51.456;8.844;2023-08-07T03:05:49;0.40;;;0.40;;
23304;SDS011;11821;51.456;8.844;2023-08-07T03:08:16;0.40;;;0.40;;
23304;SDS011;11821;51.456;8.844;2023-08-07T03:10:52;0.75;;;0.50;;
23304;SDS011;11821;51.456;8.844;2023-08-07T03:13:19;0.45;;;0.45;;
23304;SDS011;11821;51.456;8.844;2023-08-07T03:15:46;0.40;;;0.40;;
23304;SDS011;11821;51.456;8.844;2023-08-07T03:18:14;0.57;;;0.43;;
23304;SDS011;11821;51.456;8.844;2023-08-07T03:20:41;0.50;;;0.50;;
23304;SDS011;11821;51.456;8.844;2023-08-07T03:23:09;1.45;;;0.38;;
23304;SDS011;11821;51.456;8.844;2023-08-07T03:25:36;2.40;;;1.02;;
23304;SDS011;11821;51.456;8.844;2023-08-07T03:28:02;0.80;;;0.80;;
23304;SDS011;11821;51.456;8.844;2023-08-07T03:30:29;3.08;;;0.70;;
23304;SDS011;11821;51.456;8.844;2023-08-07T03:32:55;1.33;;;0.90;;
23304;SDS011;11821;51.456;8.844;2023-08-07T03:35:23;2.60;;;0.57;;
23304;SDS011;11821;51.456;8.844;2023-08-07T03:37:50;1.50;;;0.68;;
23304;SDS011;11821;51.456;8.844;2023-08-07T03:40:16;3.22;;;0.60;;
23304;SDS011;11821;51.456;8.844;2023-08-07T03:42:43;0.82;;;0.28;;
23304;SDS011;11821;51.456;8.844;2023-08-07T03:45:11;1.05;;;0.30;;
23304;SDS011;11821;51.456;8.844;2023-08-07T03:47:38;0.60;;;0.50;;
23304;SDS011;11821;51.456;8.844;2023-08-07T03:50:04;0.20;;;0.20;;
23304;SDS011;11821;51.456;8.844;2023-08-07T03:52:31;0.20;;;0.20;;
23304;SDS011;11821;51.456;8.844;2023-08-07T03:54:59;0.95;;;0.15;;
23304;SDS011;11821;51.456;8.844;2023-08-07T03:57:25;0.20;;;0.20;;
23304;SDS011;11821;51.456;8.844;2023-08-07T03:59:52;0.10;;;0.10;;
23304;SDS011;11821;51.456;8.844;2023-08-07T04:02:20;1.00;;;0.10;;
23304;SDS011;11821;51.456;8.844;2023-08-07T04:04:47;0.00;;;0.00;;
23304;SDS011;11821;51.456;8.844;2023-08-07T04:07:13;0.10;;;0.10;;
23304;SDS011;11821;51.456;8.844;2023-08-07T04:09:40;0.40;;;0.10;;
23304;SDS011;11821;51.456;8.844;2023-08-07T04:12:07;0.10;;;0.10;;
23304;SDS011;11821;51.456;8.844;2023-08-07T04:14:34;0.05;;;0.05;;
23304;SDS011;11821;51.456;8.844;2023-08-07T04:17:01;0.65;;;0.10;;
23304;SDS011;11821;51.456;8.844;2023-08-07T04:19:27;0.98;;;0.10;;
23304;SDS011;11821;51.456;8.844;2023-08-07T04:21:54;0.10;;;0.10;;
23304;SDS011;11821;51.456;8.844;2023-08-07T04:24:20;0.10;;;0.10;;
23304;SDS011;11821;51.456;8.844;2023-08-07T04:26:47;0.15;;;0.10;;
23304;SDS011;11821;51.456;8.844;2023-08-07T04:29:14;0.10;;;0.10;;
23304;SDS011;11821;51.456;8.844;2023-08-07T04:31:40;0.10;;;0.10;;
23304;SDS011;11821;51.456;8.844;2023-08-07T04:34:07;0.40;;;0.20;;
23304;SDS011;11821;51.456;8.844;2023-08-07T04:36:34;0.10;;;0.10;;
23304;SDS011;11821;51.456;8.844;2023-08-07T04:39:00;1.85;;;0.20;;
23304;SDS011;11821;51.456;8.844;2023-08-07T04:41:27;2.05;;;0.15;;
23304;SDS011;11821;51.456;8.844;2023-08-07T04:43:53;2.50;;;0.10;;
23304;SDS011;11821;51.456;8.844;2023-08-07T04:46:20;0.10;;;0.10;;
23304;SDS011;11821;51.456;8.844;2023-08-07T04:48:46;2.42;;;0.17;;
23304;SDS011;11821;51.456;8.844;2023-08-07T04:51:14;0.10;;;0.10;;
23304;SDS011;11821;51.456;8.844;2023-08-07T04:53:41;0.20;;;0.20;;
23304;SDS011;11821;51.456;8.844;2023-08-07T04:56:07;0.50;;;0.40;;
23304;SDS011;11821;51.456;8.844;2023-08-07T04:58:34;0.47;;;0.30;;
23304;SDS011;11821;51.456;8.844;2023-08-07T05:01:00;0.20;;;0.20;;
23304;SDS011;11821;51.456;8.844;2023-08-07T05:03:27;0.30;;;0.30;;
23304;SDS011;11821;51.456;8.844;2023-08-07T05:05:58;0.43;;;0.30;;
23304;SDS011;11821;51.456;8.844;2023-08-07T05:08:25;0.50;;;0.40;;
23304;SDS011;11821;51.456;8.844;2023-08-07T05:10:51;0.40;;;0.40;;
23304;SDS011;11821;51.456;8.844;2023-08-07T05:13:18;1.77;;;0.32;;
23304;SDS011;11821;51.456;8.844;2023-08-07T05:15:46;0.40;;;0.25;;
23304;SDS011;11821;51.456;8.844;2023-08-07T05:18:13;0.10;;;0.10;;
23304;SDS011;11821;51.456;8.844;2023-08-07T05:20:39;0.20;;;0.20;;
23304;SDS011;11821;51.456;8.844;2023-08-07T05:23:06;0.17;;;0.17;;
23304;SDS011;11821;51.456;8.844;2023-08-07T05:25:32;0.30;;;0.30;;
23304;SDS011;11821;51.456;8.844;2023-08-07T05:27:59;0.20;;;0.20;;
23304;SDS011;11821;51.456;8.844;2023-08-07T05:30:25;0.40;;;0.30;;
23304;SDS011;11821;51.456;8.844;2023-08-07T05:32:52;0.60;;;0.20;;
23304;SDS011;11821;51.456;8.844;2023-08-07T05:35:18;0.10;;;0.10;;
23304;SDS011;11821;51.456;8.844;2023-08-07T05:37:45;0.10;;;0.10;;
23304;SDS011;11821;51.456;8.844;2023-08-07T05:40:11;0.10;;;0.10;;
23304;SDS011;11821;51.456;8.844;2023-08-07T05:42:38;0.00;;;0.00;;
23304;SDS011;11821;51.456;8.844;2023-08-07T05:45:06;1.63;;;0.20;;
23304;SDS011;11821;51.456;8.844;2023-08-07T05:47:33;0.00;;;0.00;;
23304;SDS011;11821;51.456;8.844;2023-08-07T05:50:00;1.05;;;0.10;;
23304;SDS011;11821;51.456;8.844;2023-08-07T05:52:27;0.80;;;0.20;;
23304;SDS011;11821;51.456;8.844;2023-08-07T05:54:54;0.20;;;0.20;;
23304;SDS011;11821;51.456;8.844;2023-08-07T05:57:20;0.20;;;0.10;;
23304;SDS011;11821;51.456;8.844;2023-08-07T05:59:47;0.30;;;0.30;;
23304;SDS011;11821;51.456;8.844;2023-08-07T06:02:13;0.20;;;0.20;;
23304;SDS011;11821;51.456;8.844;2023-08-07T06:04:40;0.60;;;0.38;;
23304;SDS011;11821;51.456;8.844;2023-08-07T06:07:06;0.28;;;0.25;;
23304;SDS011;11821;51.456;8.844;2023-08-07T06:09:33;0.20;;;0.20;;
23304;SDS011;11821;51.456;8.844;2023-08-07T06:12:00;0.20;;;0.20;;
23304;SDS011;11821;51.456;8.844;2023-08-07T06:14:29;0.20;;;0.20;;
23304;SDS011;11821;51.456;8.844;2023-08-07T06:16:56;0.10;;;0.10;;
23304;SDS011;11821;51.456;8.844;2023-08-07T06:19:23;0.52;;;0.20;;
23304;SDS011;11821;51.456;8.844;2023-08-07T06:21:52;2.22;;;0.13;;
23304;SDS011;11821;51.456;8.844;2023-08-07T06:24:19;1.85;;;0.10;;
23304;SDS011;11821;51.456;8.844;2023-08-07T06:26:46;0.75;;;0.10;;
23304;SDS011;11821;51.456;8.844;2023-08-07T06:29:13;0.15;;;0.15;;
23304;SDS011;11821;51.456;8.844;2023-08-07T06:31:39;0.20;;;0.20;;
23304;SDS011;11821;51.456;8.844;2023-08-07T06:34:06;0.40;;;0.40;;
23304;SDS011;11821;51.456;8.844;2023-08-07T06:36:33;0.65;;;0.50;;
23304;SDS011;11821;51.456;8.844;2023-08-07T06:38:59;0.60;;;0.50;;
23304;SDS011;11821;51.456;8.844;2023-08-07T06:41:26;0.95;;;0.47;;
23304;SDS011;11821;51.456;8.844;2023-08-07T06:43:52;0.55;;;0.55;;
23304;SDS011;11821;51.456;8.844;2023-08-07T06:46:19;0.40;;;0.40;;
23304;SDS011;11821;51.456;8.844;2023-08-07T06:48:49;4.72;;;0.85;;
23304;SDS011;11821;51.456;8.844;2023-08-07T06:51:16;0.65;;;0.50;;
23304;SDS011;11821;51.456;8.844;2023-08-07T06:53:43;0.60;;;0.60;;
23304;SDS011;11821;51.456;8.844;2023-08-07T06:56:09;0.77;;;0.65;;
23304;SDS011;11821;51.456;8.844;2023-08-07T06:58:36;0.73;;;0.50;;
23304;SDS011;11821;51.456;8.844;2023-08-07T07:01:02;0.60;;;0.60;;
23304;SDS011;11821;51.456;8.844;2023-08-07T07:03:29;1.02;;;0.50;;
23304;SDS011;11821;51.456;8.844;2023-08-07T07:05:55;0.38;;;0.38;;
23304;SDS011;11821;51.456;8.844;2023-08-07T07:08:22;0.95;;;0.30;;
23304;SDS011;11821;51.456;8.844;2023-08-07T07:10:48;1.00;;;0.40;;
23304;SDS011;11821;51.456;8.844;2023-08-07T07:13:15;1.10;;;0.70;;
23304;SDS011;11821;51.456;8.844;2023-08-07T07:15:41;0.30;;;0.25;;
23304;SDS011;11821;51.456;8.844;2023-08-07T07:18:14;0.35;;;0.35;;
23304;SDS011;11821;51.456;8.844;2023-08-07T07:20:41;2.15;;;0.35;;
23304;SDS011;11821;51.456;8.844;2023-08-07T07:23:08;0.20;;;0.20;;
23304;SDS011;11821;51.456;8.844;2023-08-07T07:25:34;0.50;;;0.20;;
23304;SDS011;11821;51.456;8.844;2023-08-07T07:28:01;0.68;;;0.30;;
23304;SDS011;11821;51.456;8.844;2023-08-07T07:30:27;0.10;;;0.10;;
23304;SDS011;11821;51.456;8.844;2023-08-07T07:32:54;0.60;;;0.17;;
23304;SDS011;11821;51.456;8.844;2023-08-07T07:35:20;0.20;;;0.20;;
23304;SDS011;11821;51.456;8.844;2023-08-07T07:37:47;0.20;;;0.20;;
23304;SDS011;11821;51.456;8.844;2023-08-07T07:40:13;0.20;;;0.20;;
23304;SDS011;11821;51.456;8.844;2023-08-07T07:42:40;0.40;;;0.28;;
23304;SDS011;11821;51.456;8.844;2023-08-07T07:45:07;0.30;;;0.20;;
23304;SDS011;11821;51.456;8.844;2023-08-07T07:47:33;1.55;;;0.40;;
23304;SDS011;11821;51.456;8.844;2023-08-07T07:50:07;0.40;;;0.40;;
23304;SDS011;11821;51.456;8.844;2023-08-07T07:52:34;0.80;;;0.50;;
23304;SDS011;11821;51.456;8.844;2023-08-07T07:55:00;0.30;;;0.30;;
23304;SDS011;11821;51.456;8.844;2023-08-07T07:57:27;0.63;;;0.50;;
23304;SDS011;11821;51.456;8.844;2023-08-07T07:59:53;3.83;;;0.50;;
23304;SDS011;11821;51.456;8.844;2023-08-07T08:02:21;1.40;;;0.70;;
23304;SDS011;11821;51.456;8.844;2023-08-07T08:04:50;1.30;;;0.77;;
23304;SDS011;11821;51.456;8.844;2023-08-07T08:07:17;0.90;;;0.90;;
23304;SDS011;11821;51.456;8.844;2023-08-07T08:09:43;1.23;;;1.10;;
23304;SDS011;11821;51.456;8.844;2023-08-07T08:12:10;4.18;;;1.70;;
23304;SDS011;11821;51.456;8.844;2023-08-07T08:14:36;2.30;;;1.27;;
23304;SDS011;11821;51.456;8.844;2023-08-07T08:17:03;2.95;;;1.52;;
23304;SDS011;11821;51.456;8.844;2023-08-07T08:19:30;1.77;;;1.40;;
23304;SDS011;11821;51.456;8.844;2023-08-07T08:21:57;2.65;;;1.42;;
23304;SDS011;11821;51.456;8.844;2023-08-07T08:24:23;1.88;;;1.55;;
23304;SDS011;11821;51.456;8.844;2023-08-07T08:26:50;3.95;;;2.00;;
23304;SDS011;11821;51.456;8.844;2023-08-07T08:29:16;6.18;;;2.47;;
23304;SDS011;11821;51.456;8.844;2023-08-07T08:31:43;3.72;;;2.30;;
23304;SDS011;11821;51.456;8.844;2023-08-07T08:34:09;3.38;;;2.15;;
23304;SDS011;11821;51.456;8.844;2023-08-07T08:36:37;2.38;;;1.65;;
23304;SDS011;11821;51.456;8.844;2023-08-07T08:39:04;3.55;;;1.65;;
23304;SDS011;11821;51.456;8.844;2023-08-07T08:41:30;2.40;;;1.77;;
23304;SDS011;11821;51.456;8.844;2023-08-07T08:43:57;2.05;;;1.70;;
23304;SDS011;11821;51.456;8.844;2023-08-07T08:46:25;5.70;;;2.28;;
23304;SDS011;11821;51.456;8.844;2023-08-07T08:48:56;3.60;;;1.77;;
23304;SDS011;11821;51.456;8.844;2023-08-07T08:51:24;2.75;;;1.80;;
23304;SDS011;11821;51.456;8.844;2023-08-07T08:53:53;3.08;;;2.30;;
23304;SDS011;11821;51.456;8.844;2023-08-07T08:56:28;4.05;;;1.95;;
23304;SDS011;11821;51.456;8.844;2023-08-07T08:59:18;2.22;;;1.98;;
23304;SDS011;11821;51.456;8.844;2023-08-07T09:01:45;3.38;;;1.80;;
23304;SDS011;11821;51.456;8.844;2023-08-07T09:04:12;1.92;;;1.63;;
23304;SDS011;11821;51.456;8.844;2023-08-07T09:06:39;3.17;;;1.83;;
23304;SDS011;11821;51.456;8.844;2023-08-07T09:09:08;2.97;;;1.77;;
23304;SDS011;11821;51.456;8.844;2023-08-07T09:11:36;3.45;;;1.90;;
23304;SDS011;11821;51.456;8.844;2023-08-07T09:14:02;3.05;;;1.92;;
23304;SDS011;11821;51.456;8.844;2023-08-07T09:16:29;2.15;;;1.90;;
23304;SDS011;11821;51.456;8.844;2023-08-07T09:18:57;4.90;;;2.10;;
23304;SDS011;11821;51.456;8.844;2023-08-07T09:21:23;4.40;;;2.42;;
23304;SDS011;11821;51.456;8.844;2023-08-07T09:23:50;3.17;;;2.13;;
23304;SDS011;11821;51.456;8.844;2023-08-07T09:26:21;3.50;;;2.22;;
23304;SDS011;11821;51.456;8.844;2023-08-07T09:28:51;2.65;;;2.40;;
23304;SDS011;11821;51.456;8.844;2023-08-07T09:31:19;4.25;;;2.40;;
23304;SDS011;11821;51.456;8.844;2023-08-07T09:33:46;4.35;;;2.25;;
23304;SDS011;11821;51.456;8.844;2023-08-07T09:36:14;4.35;;;2.63;;
23304;SDS011;11821;51.456;8.844;2023-08-07T09:38:40;5.82;;;2.53;;
23304;SDS011;11821;51.456;8.844;2023-08-07T09:41:10;6.53;;;2.90;;
23304;SDS011;11821;51.456;8.844;2023-08-07T09:43:40;6.57;;;2.72;;
23304;SDS011;11821;51.456;8.844;2023-08-07T09:46:06;5.22;;;2.85;;
23304;SDS011;11821;51.456;8.844;2023-08-07T09:48:40;4.45;;;2.22;;
23304;SDS011;11821;51.456;8.844;2023-08-07T09:51:07;3.70;;;1.98;;
23304;SDS011;11821;51.456;8.844;2023-08-07T09:53:33;4.63;;;1.90;;
23304;SDS011;11821;51.456;8.844;2023-08-07T09:56:00;3.08;;;1.63;;
23304;SDS011;11821;51.456;8.844;2023-08-07T09:58:27;3.10;;;1.52;;
23304;SDS011;11821;51.456;8.844;2023-08-07T10:00:54;1.75;;;0.98;;
23304;SDS011;11821;51.456;8.844;2023-08-07T10:03:27;2.65;;;0.93;;
23304;SDS011;11821;51.456;8.844;2023-08-07T10:05:54;3.42;;;1.05;;
23304;SDS011;11821;51.456;8.844;2023-08-07T10:08:21;2.70;;;0.80;;
23304;SDS011;11821;51.456;8.844;2023-08-07T10:10:48;1.50;;;1.00;;
23304;SDS011;11821;51.456;8.844;2023-08-07T10:13:15;1.88;;;0.70;;
23304;SDS011;11821;51.456;8.844;2023-08-07T10:15:41;2.97;;;1.00;;
23304;SDS011;11821;51.456;8.844;2023-08-07T10:18:09;4.35;;;1.17;;
23304;SDS011;11821;51.456;8.844;2023-08-07T10:20:35;2.58;;;1.00;;
23304;SDS011;11821;51.456;8.844;2023-08-07T10:23:10;4.07;;;1.05;;
23304;SDS011;11821;51.456;8.844;2023-08-07T10:25:43;3.42;;;1.50;;
23304;SDS011;11821;51.456;8.844;2023-08-07T10:28:14;4.68;;;1.35;;
23304;SDS011;11821;51.456;8.844;2023-08-07T10:30:42;4.82;;;1.20;;
23304;SDS011;11821;51.456;8.844;2023-08-07T10:33:10;5.32;;;2.05;;
23304;SDS011;11821;51.456;8.844;2023-08-07T10:35:37;4.60;;;1.40;;
23304;SDS011;11821;51.456;8.844;2023-08-07T10:38:07;4.57;;;1.58;;
23304;SDS011;11821;51.456;8.844;2023-08-07T10:40:57;4.50;;;1.20;;
23304;SDS011;11821;51.456;8.844;2023-08-07T10:43:21;3.70;;;1.00;;
23304;SDS011;11821;51.456;8.844;2023-08-07T10:45:50;1.73;;;1.00;;
23304;SDS011;11821;51.456;8.844;2023-08-07T10:48:20;1.95;;;0.80;;
23304;SDS011;11821;51.456;8.844;2023-08-07T10:53:30;1.67;;;0.82;;
23304;SDS011;11821;51.456;8.844;2023-08-07T10:55:57;2.90;;;1.10;;
23304;SDS011;11821;51.456;8.844;2023-08-07T10:58:29;1.83;;;1.05;;
23304;SDS011;11821;51.456;8.844;2023-08-07T11:03:43;3.70;;;1.08;;
23304;SDS011;11821;51.456;8.844;2023-08-07T11:06:10;3.63;;;1.30;;
23304;SDS011;11821;51.456;8.844;2023-08-07T11:08:37;3.70;;;1.77;;
23304;SDS011;11821;51.456;8.844;2023-08-07T11:11:07;5.18;;;1.23;;
23304;SDS011;11821;51.456;8.844;2023-08-07T11:13:34;5.90;;;1.48;;
23304;SDS011;11821;51.456;8.844;2023-08-07T11:16:04;4.80;;;1.38;;
23304;SDS011;11821;51.456;8.844;2023-08-07T11:18:31;5.13;;;1.77;;
23304;SDS011;11821;51.456;8.844;2023-08-07T11:20:58;5.70;;;1.35;;
23304;SDS011;11821;51.456;8.844;2023-08-07T11:23:27;7.03;;;1.30;;
23304;SDS011;11821;51.456;8.844;2023-08-07T11:25:54;2.40;;;1.20;;
23304;SDS011;11821;51.456;8.844;2023-08-07T11:28:22;3.15;;;1.60;;
23304;SDS011;11821;51.456;8.844;2023-08-07T11:30:51;3.95;;;1.13;;
23304;SDS011;11821;51.456;8.844;2023-08-07T11:33:23;2.85;;;1.60;;
23304;SDS011;11821;51.456;8.844;2023-08-07T11:35:50;4.63;;;1.63;;
23304;SDS011;11821;51.456;8.844;2023-08-07T11:40:59;7.22;;;1.70;;
23304;SDS011;11821;51.456;8.844;2023-08-07T11:43:29;4.15;;;1.50;;
23304;SDS011;11821;51.456;8.844;2023-08-07T11:45:56;7.32;;;1.50;;
23304;SDS011;11821;51.456;8.844;2023-08-07T11:48:27;5.90;;;1.50;;
23304;SDS011;11821;51.456;8.844;2023-08-07T11:50:54;3.15;;;1.08;;
23304;SDS011;11821;51.456;8.844;2023-08-07T11:53:21;3.38;;;1.50;;
23304;SDS011;11821;51.456;8.844;2023-08-07T11:58:28;4.75;;;1.73;;
23304;SDS011;11821;51.456;8.844;2023-08-07T12:03:30;4.07;;;1.77;;
23304;SDS011;11821;51.456;8.844;2023-08-07T12:05:57;4.40;;;1.90;;
23304;SDS011;11821;51.456;8.844;2023-08-07T12:08:24;4.25;;;1.95;;
23304;SDS011;11821;51.456;8.844;2023-08-07T12:10:53;4.05;;;1.60;;
23304;SDS011;11821;51.456;8.844;2023-08-07T12:13:23;10.15;;;1.90;;
23304;SDS011;11821;51.456;8.844;2023-08-07T12:15:51;6.28;;;2.10;;
23304;SDS011;11821;51.456;8.844;2023-08-07T12:18:22;5.40;;;2.33;;
23304;SDS011;11821;51.456;8.844;2023-08-07T12:20:50;3.90;;;2.03;;
23304;SDS011;11821;51.456;8.844;2023-08-07T12:23:20;5.43;;;1.80;;
23304;SDS011;11821;51.456;8.844;2023-08-07T12:25:47;5.13;;;1.60;;
23304;SDS011;11821;51.456;8.844;2023-08-07T12:28:15;4.45;;;1.73;;
23304;SDS011;11821;51.456;8.844;2023-08-07T12:30:44;6.53;;;2.10;;
23304;SDS011;11821;51.456;8.844;2023-08-07T12:33:11;5.93;;;2.05;;
23304;SDS011;11821;51.456;8.844;2023-08-07T12:35:37;6.10;;;2.10;;
23304;SDS011;11821;51.456;8.844;2023-08-07T12:38:04;9.40;;;1.80;;
23304;SDS011;11821;51.456;8.844;2023-08-07T12:40:31;5.20;;;2.10;;
23304;SDS011;11821;51.456;8.844;2023-08-07T12:42:58;3.97;;;2.15;;
23304;SDS011;11821;51.456;8.844;2023-08-07T12:45:24;6.53;;;2.03;;
23304;SDS011;11821;51.456;8.844;2023-08-07T12:47:51;6.18;;;1.92;;
23304;SDS011;11821;51.456;8.844;2023-08-07T12:50:18;5.43;;;2.45;;
23304;SDS011;11821;51.456;8.844;2023-08-07T12:52:44;6.68;;;1.83;;
23304;SDS011;11821;51.456;8.844;2023-08-07T12:55:11;4.88;;;1.60;;
23304;SDS011;11821;51.456;8.844;2023-08-07T12:57:40;3.97;;;1.63;;
23304;SDS011;11821;51.456;8.844;2023-08-07T13:00:08;4.45;;;1.83;;
23304;SDS011;11821;51.456;8.844;2023-08-07T13:02:43;6.78;;;1.85;;
23304;SDS011;11821;51.456;8.844;2023-08-07T13:05:11;4.95;;;1.63;;
23304;SDS011;11821;51.456;8.844;2023-08-07T13:07:38;4.05;;;1.67;;
23304;SDS011;11821;51.456;8.844;2023-08-07T13:10:05;13.32;;;2.08;;
23304;SDS011;11821;51.456;8.844;2023-08-07T13:12:36;2.70;;;1.23;;
23304;SDS011;11821;51.456;8.844;2023-08-07T13:15:06;8.20;;;1.88;;
23304;SDS011;11821;51.456;8.844;2023-08-07T13:17:34;1.95;;;0.95;;
23304;SDS011;11821;51.456;8.844;2023-08-07T13:20:02;4.28;;;1.40;;
23304;SDS011;11821;51.456;8.844;2023-08-07T13:22:36;2.03;;;1.20;;
23304;SDS011;11821;51.456;8.844;2023-08-07T13:25:04;7.05;;;1.98;;
23304;SDS011;11821;51.456;8.844;2023-08-07T13:27:31;4.03;;;1.30;;
23304;SDS011;11821;51.456;8.844;2023-08-07T13:29:58;6.55;;;1.40;;
23304;SDS011;11821;51.456;8.844;2023-08-07T13:32:25;2.65;;;1.50;;
23304;SDS011;11821;51.456;8.844;2023-08-07T13:34:52;4.20;;;1.20;;
23304;SDS011;11821;51.456;8.844;2023-08-07T13:37:18;4.13;;;1.42;;
23304;SDS011;11821;51.456;8.844;2023-08-07T13:39:45;6.45;;;1.80;;
23304;SDS011;11821;51.456;8.844;2023-08-07T13:42:13;5.15;;;1.42;;
23304;SDS011;11821;51.456;8.844;2023-08-07T13:44:40;2.80;;;1.05;;
23304;SDS011;11821;51.456;8.844;2023-08-07T13:47:06;2.83;;;1.40;;
23304;SDS011;11821;51.456;8.844;2023-08-07T13:49:33;2.30;;;1.15;;
23304;SDS011;11821;51.456;8.844;2023-08-07T13:52:00;3.30;;;1.15;;
23304;SDS011;11821;51.456;8.844;2023-08-07T13:54:26;1.92;;;1.20;;
23304;SDS011;11821;51.456;8.844;2023-08-07T13:56:52;4.75;;;1.13;;
23304;SDS011;11821;51.456;8.844;2023-08-07T13:59:19;4.18;;;1.20;;
23304;SDS011;11821;51.456;8.844;2023-08-07T14:01:45;7.43;;;1.60;;
23304;SDS011;11821;51.456;8.844;2023-08-07T14:04:12;2.97;;;1.15;;
23304;SDS011;11821;51.456;8.844;2023-08-07T14:06:40;7.93;;;1.60;;
23304;SDS011;11821;51.456;8.844;2023-08-07T14:09:09;6.22;;;1.45;;
23304;SDS011;11821;51.456;8.844;2023-08-07T14:11:36;2.95;;;1.20;;
23304;SDS011;11821;51.456;8.844;2023-08-07T14:14:03;2.63;;;1.00;;
23304;SDS011;11821;51.456;8.844;2023-08-07T14:16:29;5.47;;;1.75;;
23304;SDS011;11821;51.456;8.844;2023-08-07T14:18:57;3.83;;;1.45;;
23304;SDS011;11821;51.456;8.844;2023-08-07T14:21:24;4.93;;;1.48;;
23304;SDS011;11821;51.456;8.844;2023-08-07T14:23:50;2.45;;;1.10;;
23304;SDS011;11821;51.456;8.844;2023-08-07T14:26:17;3.40;;;1.27;;
23304;SDS011;11821;51.456;8.844;2023-08-07T14:28:44;4.80;;;1.48;;
23304;SDS011;11821;51.456;8.844;2023-08-07T14:31:10;5.45;;;1.40;;
23304;SDS011;11821;51.456;8.844;2023-08-07T14:33:37;2.53;;;1.23;;
23304;SDS011;11821;51.456;8.844;2023-08-07T14:36:04;2.17;;;1.10;;
23304;SDS011;11821;51.456;8.844;2023-08-07T14:38:31;2.90;;;1.10;;
23304;SDS011;11821;51.456;8.844;2023-08-07T14:40:58;2.88;;;1.38;;
23304;SDS011;11821;51.456;8.844;2023-08-07T14:43:26;3.05;;;1.08;;
23304;SDS011;11821;51.456;8.844;2023-08-07T14:45:54;2.95;;;1.38;;
23304;SDS011;11821;51.456;8.844;2023-08-07T14:48:21;3.60;;;1.63;;
23304;SDS011;11821;51.456;8.844;2023-08-07T14:50:48;3.10;;;1.35;;
23304;SDS011;11821;51.456;8.844;2023-08-07T14:53:14;3.15;;;1.20;;
23304;SDS011;11821;51.456;8.844;2023-08-07T14:55:41;1.92;;;1.17;;
23304;SDS011;11821;51.456;8.844;2023-08-07T14:58:07;3.35;;;1.10;;
23304;SDS011;11821;51.456;8.844;2023-08-07T15:00:34;4.85;;;1.67;;
23304;SDS011;11821;51.456;8.844;2023-08-07T15:03:01;2.45;;;1.27;;
23304;SDS011;11821;51.456;8.844;2023-08-07T15:05:28;3.20;;;1.20;;
23304;SDS011;11821;51.456;8.844;2023-08-07T15:07:54;6.68;;;1.30;;
23304;SDS011;11821;51.456;8.844;2023-08-07T15:10:21;3.97;;;1.90;;
23304;SDS011;11821;51.456;8.844;2023-08-07T15:12:47;4.70;;;1.40;;